createdAt,value
2022-09-06T00:01:17.123Z,22.50
2022-09-06T00:03:44.790Z,22.53
2022-09-06T00:06:15.956Z,22.54
2022-09-06T00:08:44.132Z,22.51
2022-09-06T00:11:11.115Z,22.49
2022-09-06T00:13:38.571Z,22.48
2022-09-06T00:16:11.308Z,22.47
2022-09-06T00:18:38.203Z,22.44
2022-09-06T00:21:15.258Z,22.41
2022-09-06T00:23:41.939Z,22.38
2022-09-06T00:26:08.529Z,22.38
2022-09-06T00:28:34.991Z,22.40
2022-09-06T00:31:31.876Z,22.36
2022-09-06T00:33:58.450Z,22.38
2022-09-06T00:36:24.935Z,22.40
2022-09-06T00:38:51.452Z,22.37
2022-09-06T00:41:18.038Z,22.40
2022-09-06T00:43:45.189Z,22.32
2022-09-06T00:46:23.464Z,22.28
2022-09-06T00:48:56.367Z,22.28
2022-09-06T00:51:26.346Z,22.27
2022-09-06T00:53:52.948Z,22.27
2022-09-06T00:56:19.641Z,22.26
2022-09-06T00:58:48.635Z,22.20
2022-09-06T01:01:15.254Z,22.16
2022-09-06T01:03:42.742Z,22.09
2022-09-06T01:06:18.203Z,22.06
2022-09-06T01:08:50.411Z,21.99
2022-09-06T01:11:22.783Z,21.69
2022-09-06T01:14:01.428Z,21.45
2022-09-06T01:17:03.254Z,21.37
2022-09-06T01:19:52.428Z,21.38
2022-09-06T01:22:58.891Z,21.35
2022-09-06T01:25:52.900Z,21.42
2022-09-06T01:28:41.169Z,21.37
2022-09-06T01:31:44.599Z,21.49
2022-09-06T01:34:37.974Z,21.56
2022-09-06T01:37:14.401Z,21.54
2022-09-06T01:39:42.026Z,21.52
2022-09-06T01:42:27.368Z,21.47
2022-09-06T01:44:59.609Z,21.48
2022-09-06T01:47:47.975Z,21.51
2022-09-06T01:50:32.801Z,21.56
2022-09-06T01:53:04.800Z,21.45
2022-09-06T01:55:58.812Z,21.40
2022-09-06T01:58:32.140Z,21.35
2022-09-06T02:01:07.467Z,21.45
2022-09-06T02:03:51.042Z,21.36
2022-09-06T02:06:24.174Z,21.46
2022-09-06T02:08:57.194Z,21.53
2022-09-06T02:11:26.931Z,21.49
2022-09-06T02:14:03.014Z,21.53
2022-09-06T02:16:32.280Z,21.61
2022-09-06T02:19:17.388Z,21.62
2022-09-06T02:21:47.365Z,21.71
2022-09-06T02:24:21.605Z,21.73
2022-09-06T02:26:49.104Z,21.80
2022-09-06T02:29:16.699Z,21.85
2022-09-06T02:31:47.706Z,21.86
2022-09-06T02:34:17.898Z,21.85
2022-09-06T02:36:45.098Z,21.86
2022-09-06T02:39:12.273Z,21.93
2022-09-06T02:41:41.025Z,22.00
2022-09-06T02:44:07.522Z,22.02
2022-09-06T02:46:34.047Z,22.00
2022-09-06T02:49:00.659Z,21.94
2022-09-06T02:51:27.243Z,21.92
2022-09-06T02:53:53.826Z,21.88
2022-09-06T02:56:20.344Z,21.87
2022-09-06T02:58:46.914Z,21.91
2022-09-06T03:01:13.432Z,21.95
2022-09-06T03:03:39.932Z,21.91
2022-09-06T03:06:06.702Z,21.92
2022-09-06T03:08:34.175Z,21.87
2022-09-06T03:11:01.207Z,21.84
2022-09-06T03:13:28.547Z,21.83
2022-09-06T03:15:57.545Z,21.66
2022-09-06T03:18:25.645Z,21.55
2022-09-06T03:20:53.793Z,21.54
2022-09-06T03:23:22.219Z,21.48
2022-09-06T03:25:48.789Z,21.49
2022-09-06T03:28:15.866Z,21.44
2022-09-06T03:30:45.218Z,21.45
2022-09-06T03:33:12.751Z,21.41
2022-09-06T03:35:39.311Z,21.34
2022-09-06T03:38:05.958Z,21.25
2022-09-06T03:40:32.498Z,21.27
2022-09-06T03:42:59.086Z,21.33
2022-09-06T03:45:25.626Z,21.29
2022-09-06T03:47:52.077Z,21.36
2022-09-06T03:50:18.547Z,21.45
2022-09-06T03:52:44.998Z,21.52
2022-09-06T03:55:11.995Z,21.55
2022-09-06T03:57:38.473Z,21.48
2022-09-06T04:00:05.502Z,21.50
2022-09-06T04:02:32.028Z,21.44
2022-09-06T04:04:58.558Z,21.42
2022-09-06T04:07:25.375Z,21.41
2022-09-06T04:09:51.809Z,21.32
2022-09-06T04:12:18.285Z,21.29
2022-09-06T04:14:44.749Z,21.22
2022-09-06T04:17:12.374Z,21.16
2022-09-06T04:19:38.826Z,20.92
2022-09-06T04:22:05.502Z,20.74
2022-09-06T04:24:31.982Z,20.78
2022-09-06T04:26:58.531Z,20.85
2022-09-06T04:29:25.036Z,20.92
2022-09-06T04:31:51.513Z,20.91
2022-09-06T04:34:19.674Z,20.95
2022-09-06T04:36:48.505Z,20.98
2022-09-06T04:39:15.502Z,20.90
2022-09-06T04:41:42.624Z,20.91
2022-09-06T04:44:09.384Z,20.87
2022-09-06T04:46:35.937Z,20.85
2022-09-06T04:49:02.430Z,20.79
2022-09-06T04:51:28.970Z,20.82
2022-09-06T04:53:55.508Z,20.82
2022-09-06T04:56:25.181Z,20.88
2022-09-06T04:58:53.874Z,20.92
2022-09-06T05:01:20.935Z,20.95
2022-09-06T05:03:47.790Z,20.96
2022-09-06T05:06:20.773Z,20.96
2022-09-06T05:08:47.415Z,20.91
2022-09-06T05:11:13.921Z,20.92
2022-09-06T05:13:41.095Z,20.93
2022-09-06T05:16:08.821Z,20.95
2022-09-06T05:18:36.010Z,20.98
2022-09-06T05:21:02.628Z,20.97
2022-09-06T05:23:29.365Z,20.96
2022-09-06T05:25:55.923Z,20.96
2022-09-06T05:28:23.075Z,20.97
2022-09-06T05:30:49.556Z,20.96
2022-09-06T05:33:21.844Z,20.97
2022-09-06T05:35:48.946Z,20.93
2022-09-06T05:38:15.683Z,20.89
2022-09-06T05:40:42.229Z,20.90
2022-09-06T05:43:08.714Z,20.89
2022-09-06T05:45:35.262Z,20.90
2022-09-06T05:48:01.958Z,20.86
2022-09-06T05:50:28.431Z,20.89
2022-09-06T05:52:54.901Z,20.92
2022-09-06T05:55:21.364Z,20.93
2022-09-06T05:57:47.879Z,20.91
2022-09-06T06:00:14.670Z,20.88
2022-09-06T06:02:41.245Z,20.85
2022-09-06T06:05:08.358Z,20.85
2022-09-06T06:07:34.908Z,20.85
2022-09-06T06:10:01.458Z,20.94
2022-09-06T06:12:27.975Z,20.96
2022-09-06T06:14:54.426Z,20.88
2022-09-06T06:17:20.900Z,20.86
2022-09-06T06:19:47.546Z,20.85
2022-09-06T06:22:14.037Z,20.83
2022-09-06T06:24:40.489Z,20.89
2022-09-06T06:27:06.955Z,20.92
2022-09-06T06:29:33.528Z,20.97
2022-09-06T06:32:00.041Z,21.08
2022-09-06T06:34:26.629Z,21.19
2022-09-06T06:36:53.058Z,21.27
2022-09-06T06:39:19.611Z,21.32
2022-09-06T06:41:46.244Z,21.36
2022-09-06T06:44:12.736Z,21.35
2022-09-06T06:46:39.375Z,21.38
2022-09-06T06:49:06.245Z,21.45
2022-09-06T06:51:37.059Z,21.53
2022-09-06T06:54:04.685Z,21.59
2022-09-06T06:56:32.654Z,21.68
2022-09-06T06:59:01.432Z,21.73
2022-09-06T07:01:30.010Z,21.78
2022-09-06T07:03:58.337Z,21.84
2022-09-06T07:09:15.228Z,22.01
2022-09-06T07:11:42.099Z,22.08
2022-09-06T07:14:08.902Z,22.17
2022-09-06T07:16:35.405Z,22.27
2022-09-06T07:19:02.192Z,22.36
2022-09-06T07:24:05.836Z,22.54
2022-09-06T07:26:33.711Z,22.64
2022-09-06T07:29:01.785Z,22.73
2022-09-06T07:34:17.614Z,22.88
2022-09-06T07:36:44.148Z,22.97
2022-09-06T07:39:10.700Z,23.07
2022-09-06T07:41:37.216Z,23.19
2022-09-06T07:44:03.668Z,23.30
2022-09-06T07:46:30.218Z,23.44
2022-09-06T07:48:56.777Z,23.55
2022-09-06T07:51:23.399Z,23.65
2022-09-06T07:53:57.863Z,23.77
2022-09-06T07:56:33.974Z,23.90
2022-09-06T07:59:00.453Z,24.11
2022-09-06T08:01:35.370Z,24.29
2022-09-06T08:04:05.993Z,24.37
2022-09-06T08:09:22.821Z,24.75
2022-09-06T08:11:51.021Z,24.80
2022-09-06T08:14:17.554Z,24.85
2022-09-06T08:16:44.138Z,25.04
2022-09-06T08:19:12.310Z,25.19
2022-09-06T08:21:39.160Z,25.24
2022-09-06T08:24:07.954Z,25.38
2022-09-06T08:26:36.418Z,25.48
2022-09-06T08:29:06.822Z,25.58
2022-09-06T08:31:35.574Z,25.67
2022-09-06T08:34:03.563Z,25.81
2022-09-06T08:36:30.783Z,25.83
2022-09-06T08:39:05.364Z,25.89
2022-09-06T08:41:50.092Z,25.97
2022-09-06T08:47:21.128Z,26.06
2022-09-06T08:49:50.759Z,26.19
2022-09-06T08:52:20.009Z,26.34
2022-09-06T08:55:09.976Z,26.33
2022-09-06T08:57:57.972Z,26.46
2022-09-06T09:00:24.703Z,26.60
2022-09-06T09:03:06.747Z,26.65
2022-09-06T09:05:36.201Z,26.86
2022-09-06T09:08:24.092Z,26.84
2022-09-06T09:11:03.692Z,27.03
2022-09-06T09:13:36.234Z,27.00
2022-09-06T09:16:02.813Z,27.21
2022-09-06T09:18:34.067Z,27.26
2022-09-06T09:21:00.664Z,27.50
2022-09-06T09:23:29.577Z,27.61
2022-09-06T09:26:00.965Z,27.64
2022-09-06T09:28:27.561Z,27.76
2022-09-06T09:30:56.847Z,27.96
2022-09-06T09:33:35.475Z,27.98
2022-09-06T09:36:07.355Z,27.98
2022-09-06T09:38:42.806Z,28.01
2022-09-06T09:41:23.828Z,28.04
2022-09-06T09:44:02.260Z,28.08
2022-09-06T09:46:33.174Z,28.16
2022-09-06T09:49:10.326Z,28.34
2022-09-06T09:51:39.743Z,28.42
2022-09-06T09:54:12.580Z,28.47
2022-09-06T09:56:43.422Z,28.33
2022-09-06T09:59:20.612Z,28.27
2022-09-06T10:01:47.881Z,28.34
2022-09-06T10:07:18.022Z,28.57
2022-09-06T10:10:00.627Z,28.62
2022-09-06T10:12:30.122Z,28.69
2022-09-06T10:14:57.237Z,28.99
2022-09-06T10:17:38.046Z,29.04
2022-09-06T10:20:13.893Z,29.21
2022-09-06T10:22:49.454Z,29.29
2022-09-06T10:25:34.318Z,29.27
2022-09-06T10:28:28.112Z,29.35
2022-09-06T10:30:57.697Z,29.25
2022-09-06T10:34:06.010Z,29.50
2022-09-06T10:36:44.984Z,29.87
2022-09-06T10:39:23.837Z,30.06
2022-09-06T10:42:04.921Z,30.30
2022-09-06T10:45:08.108Z,30.36
2022-09-06T10:47:55.184Z,30.55
2022-09-06T10:50:25.888Z,30.78
2022-09-06T10:52:53.844Z,30.56
2022-09-06T10:55:21.058Z,30.49
2022-09-06T10:58:20.679Z,30.51
2022-09-06T11:00:49.693Z,30.53
2022-09-06T11:06:26.705Z,30.88
2022-09-06T11:08:58.525Z,31.22
2022-09-06T11:11:47.549Z,31.17
2022-09-06T11:14:15.583Z,31.22
2022-09-06T11:16:51.915Z,31.59
2022-09-06T11:19:27.536Z,31.88
2022-09-06T11:22:07.550Z,31.98
2022-09-06T11:24:55.763Z,32.16
2022-09-06T11:27:32.127Z,32.26
2022-09-06T11:30:01.311Z,32.33
2022-09-06T11:32:30.480Z,32.46
2022-09-06T11:35:01.173Z,31.87
2022-09-06T11:37:39.558Z,32.13
2022-09-06T11:42:55.406Z,32.96
2022-09-06T11:45:38.936Z,32.98
2022-09-06T11:48:23.953Z,32.97
2022-09-06T11:50:53.370Z,32.97
2022-09-06T11:53:21.684Z,33.00
2022-09-06T11:55:51.302Z,33.01
2022-09-06T11:58:17.779Z,33.10
2022-09-06T12:00:46.320Z,33.01
2022-09-06T12:06:32.478Z,33.44
2022-09-06T12:08:59.970Z,33.39
2022-09-06T12:11:41.711Z,33.26
2022-09-06T12:14:32.473Z,33.27
2022-09-06T12:16:59.074Z,33.12
2022-09-06T12:19:45.124Z,33.02
2022-09-06T12:22:47.662Z,32.65
2022-09-06T12:25:37.078Z,32.96
2022-09-06T12:28:20.132Z,33.38
2022-09-06T12:30:48.084Z,33.71
2022-09-06T12:33:23.767Z,34.57
2022-09-06T12:35:58.621Z,34.54
2022-09-06T12:38:25.990Z,34.15
2022-09-06T12:43:42.341Z,34.25
2022-09-06T12:46:08.919Z,34.09
2022-09-06T12:48:41.119Z,34.62
2022-09-06T12:51:20.050Z,34.92
2022-09-06T12:53:54.451Z,35.80
2022-09-06T12:56:23.091Z,35.83
2022-09-06T12:58:49.849Z,35.55
2022-09-06T13:01:25.839Z,35.24
2022-09-06T13:03:58.433Z,35.80
2022-09-06T13:06:27.373Z,35.90
2022-09-06T13:08:57.153Z,35.78
2022-09-06T13:11:28.189Z,35.88
2022-09-06T13:13:55.346Z,36.03
2022-09-06T13:16:25.009Z,36.13
2022-09-06T13:18:51.804Z,35.42
2022-09-06T13:21:35.134Z,34.72
2022-09-06T13:24:37.687Z,33.80
2022-09-06T13:27:45.957Z,33.51
2022-09-06T13:30:33.855Z,34.06
2022-09-06T13:33:01.194Z,34.15
2022-09-06T13:35:34.351Z,34.12
2022-09-06T13:38:20.938Z,34.44
2022-09-06T13:43:45.126Z,35.34
2022-09-06T13:46:12.025Z,35.86
2022-09-06T13:48:43.003Z,35.38
2022-09-06T13:51:10.045Z,35.20
2022-09-06T13:53:36.587Z,35.60
2022-09-06T13:56:03.709Z,36.17
2022-09-06T13:58:30.375Z,35.82
2022-09-06T14:00:57.069Z,35.63
2022-09-06T14:03:31.780Z,35.64
2022-09-06T14:06:00.253Z,35.07
2022-09-06T14:08:43.665Z,34.98
2022-09-06T14:11:17.646Z,34.70
2022-09-06T14:13:44.380Z,34.69
2022-09-06T14:16:11.911Z,34.75
2022-09-06T14:18:38.666Z,35.12
2022-09-06T14:21:05.437Z,35.56
2022-09-06T14:23:31.979Z,35.92
2022-09-06T14:26:00.204Z,35.97
2022-09-06T14:28:27.529Z,36.33
2022-09-06T14:30:55.013Z,36.83
2022-09-06T14:33:21.588Z,37.35
2022-09-06T14:35:48.885Z,37.16
2022-09-06T14:38:15.768Z,36.67
2022-09-06T14:40:45.370Z,36.79
2022-09-06T14:43:11.970Z,36.90
2022-09-06T14:45:38.552Z,37.12
2022-09-06T14:48:05.668Z,37.43
2022-09-06T14:50:32.515Z,37.67
2022-09-06T14:52:59.195Z,37.44
2022-09-06T14:55:28.047Z,37.52
2022-09-06T14:57:54.678Z,37.28
2022-09-06T15:00:21.355Z,37.30
2022-09-06T15:02:47.886Z,37.46
2022-09-06T15:05:14.520Z,37.21
2022-09-06T15:07:41.016Z,37.14
2022-09-06T15:10:07.846Z,37.18
2022-09-06T15:12:34.348Z,37.18
2022-09-06T15:15:00.929Z,36.89
2022-09-06T15:17:27.416Z,36.26
2022-09-06T15:19:54.312Z,36.38
2022-09-06T15:22:20.890Z,36.41
2022-09-06T15:24:47.454Z,36.54
2022-09-06T15:27:13.991Z,36.46
2022-09-06T15:29:41.157Z,36.24
2022-09-06T15:32:07.660Z,35.78
2022-09-06T15:34:35.179Z,35.30
2022-09-06T15:37:01.712Z,35.17
2022-09-06T15:39:28.310Z,34.48
2022-09-06T15:41:54.872Z,34.21
2022-09-06T15:44:21.686Z,34.19
2022-09-06T15:46:59.497Z,33.80
2022-09-06T15:49:34.627Z,33.54
2022-09-06T15:52:02.665Z,33.11
2022-09-06T15:54:48.587Z,33.07
2022-09-06T15:57:16.562Z,33.18
2022-09-06T15:59:43.698Z,33.25
2022-09-06T16:02:10.701Z,33.26
2022-09-06T16:04:37.420Z,33.28
2022-09-06T16:07:04.169Z,32.99
2022-09-06T16:09:31.770Z,32.77
2022-09-06T16:11:58.428Z,32.80
2022-09-06T16:14:25.251Z,32.80
2022-09-06T16:16:55.032Z,32.79
2022-09-06T16:19:21.714Z,32.86
2022-09-06T16:21:48.285Z,32.86
2022-09-06T16:24:15.295Z,32.88
2022-09-06T16:26:43.683Z,32.84
2022-09-06T16:29:12.009Z,32.83
2022-09-06T16:31:40.636Z,32.78
2022-09-06T16:34:08.908Z,32.76
2022-09-06T16:36:36.303Z,32.68
2022-09-06T16:39:04.133Z,32.57
2022-09-06T16:41:49.445Z,32.49
2022-09-06T16:44:18.183Z,32.45
2022-09-06T16:46:47.083Z,32.41
2022-09-06T16:49:16.403Z,32.37
2022-09-06T16:51:43.643Z,32.35
2022-09-06T16:54:10.252Z,32.29
2022-09-06T16:56:36.989Z,32.24
2022-09-06T16:59:06.323Z,32.19
2022-09-06T17:01:34.252Z,32.09
2022-09-06T17:04:04.466Z,31.95
2022-09-06T17:06:33.131Z,31.84
2022-09-06T17:09:00.020Z,31.81
2022-09-06T17:11:27.966Z,31.77
2022-09-06T17:13:55.583Z,31.68
2022-09-06T17:16:41.099Z,31.60
2022-09-06T17:19:08.105Z,31.41
2022-09-06T17:21:35.514Z,31.32
2022-09-06T17:24:04.537Z,31.20
2022-09-06T17:26:33.099Z,31.08
2022-09-06T17:28:59.667Z,30.89
2022-09-06T17:31:26.469Z,30.78
2022-09-06T17:33:53.417Z,30.65
2022-09-06T17:36:25.053Z,30.55
2022-09-06T17:38:53.557Z,30.39
2022-09-06T17:41:27.403Z,30.24
2022-09-06T17:43:54.892Z,30.06
2022-09-06T17:46:27.868Z,29.87
2022-09-06T17:48:55.299Z,29.70
2022-09-06T17:51:21.850Z,29.54
2022-09-06T17:53:48.508Z,29.38
2022-09-06T17:56:16.739Z,29.31
2022-09-06T17:58:44.556Z,29.22
2022-09-06T18:01:14.734Z,29.14
2022-09-06T18:03:42.327Z,29.03
2022-09-06T18:06:19.904Z,28.94
2022-09-06T18:08:47.869Z,28.79
2022-09-06T18:11:18.003Z,28.70
2022-09-06T18:13:45.585Z,28.59
2022-09-06T18:16:14.094Z,28.50
2022-09-06T18:18:41.644Z,28.40
2022-09-06T18:21:08.256Z,28.28
2022-09-06T18:23:35.505Z,28.21
2022-09-06T18:26:05.670Z,28.12
2022-09-06T18:28:34.584Z,28.03
2022-09-06T18:31:07.980Z,27.88
2022-09-06T18:33:35.240Z,27.79
2022-09-06T18:36:02.177Z,27.66
2022-09-06T18:38:28.886Z,27.60
2022-09-06T18:40:57.685Z,27.53
2022-09-06T18:43:28.339Z,27.46
2022-09-06T18:46:10.536Z,27.38
2022-09-06T18:48:37.676Z,27.30
2022-09-06T18:51:12.942Z,27.19
2022-09-06T18:53:44.753Z,27.11
2022-09-06T18:56:13.680Z,27.03
2022-09-06T18:58:40.875Z,26.92
2022-09-06T19:01:13.564Z,26.81
2022-09-06T19:03:41.240Z,26.76
2022-09-06T19:06:15.139Z,26.66
2022-09-06T19:08:42.073Z,26.60
2022-09-06T19:11:11.695Z,26.45
2022-09-06T19:13:40.386Z,26.36
2022-09-06T19:16:08.350Z,26.34
2022-09-06T19:18:35.530Z,26.24
2022-09-06T19:21:05.208Z,26.15
2022-09-06T19:23:33.548Z,26.08
2022-09-06T19:26:07.581Z,26.04
2022-09-06T19:28:35.700Z,26.02
2022-09-06T19:31:13.472Z,25.89
2022-09-06T19:33:41.573Z,25.83
2022-09-06T19:36:11.876Z,25.76
2022-09-06T19:39:02.157Z,25.69
2022-09-06T19:41:28.341Z,25.60
2022-09-06T19:43:57.072Z,25.55
2022-09-06T19:46:24.169Z,25.46
2022-09-06T19:48:52.524Z,25.38
2022-09-06T19:51:19.875Z,25.35
2022-09-06T19:53:53.043Z,25.30
2022-09-06T19:56:25.217Z,25.25
2022-09-06T19:58:57.175Z,25.23
2022-09-06T20:01:25.966Z,25.13
2022-09-06T20:03:53.004Z,25.01
2022-09-06T20:06:19.648Z,25.05
2022-09-06T20:08:50.501Z,25.04
2022-09-06T20:11:18.007Z,25.04
2022-09-06T20:13:45.079Z,25.00
2022-09-06T20:16:12.900Z,24.99
2022-09-06T20:18:40.180Z,24.91
2022-09-06T20:21:07.216Z,24.85
2022-09-06T20:23:34.759Z,24.82
2022-09-06T20:26:05.812Z,24.80
2022-09-06T20:28:33.011Z,24.73
2022-09-06T20:31:16.332Z,24.66
2022-09-06T20:33:48.505Z,24.68
2022-09-06T20:36:16.209Z,24.68
2022-09-06T20:38:43.985Z,24.59
2022-09-06T20:41:11.780Z,24.57
2022-09-06T20:43:39.722Z,24.54
2022-09-06T20:46:12.725Z,24.49
2022-09-06T20:48:44.186Z,24.47
2022-09-06T20:51:19.762Z,24.43
2022-09-06T20:53:47.307Z,24.23
2022-09-06T20:56:16.663Z,23.87
2022-09-06T20:58:51.002Z,23.84
2022-09-06T21:01:22.456Z,24.00
2022-09-06T21:03:54.542Z,24.19
2022-09-06T21:06:22.446Z,24.36
2022-09-06T21:08:49.797Z,24.48
2022-09-06T21:11:16.819Z,24.51
2022-09-06T21:13:43.821Z,24.58
2022-09-06T21:16:10.364Z,24.65
2022-09-06T21:18:37.336Z,24.62
2022-09-06T21:21:06.751Z,24.56
2022-09-06T21:23:36.071Z,24.55
2022-09-06T21:26:05.291Z,24.52
2022-09-06T21:28:34.148Z,24.48
2022-09-06T21:31:03.685Z,24.45
2022-09-06T21:33:32.325Z,24.38
2022-09-06T21:36:06.821Z,24.34
2022-09-06T21:38:34.798Z,24.36
2022-09-06T21:41:01.945Z,24.35
2022-09-06T21:43:28.525Z,24.31
2022-09-06T21:45:55.158Z,24.33
2022-09-06T21:48:21.710Z,24.24
2022-09-06T21:50:48.377Z,24.21
2022-09-06T21:53:15.527Z,24.20
2022-09-06T21:55:42.309Z,24.26
2022-09-06T21:58:08.864Z,24.31
2022-09-06T22:00:35.653Z,24.37
2022-09-06T22:03:02.566Z,24.49
2022-09-06T22:05:29.125Z,24.70
2022-09-06T22:07:55.639Z,24.90
2022-09-06T22:10:23.802Z,25.06
2022-09-06T22:12:50.668Z,25.22
2022-09-06T22:15:18.962Z,25.37
2022-09-06T22:17:45.458Z,25.49
2022-09-06T22:20:12.209Z,25.57
2022-09-06T22:22:38.805Z,25.62
2022-09-06T22:25:05.882Z,25.65
2022-09-06T22:27:32.447Z,25.68
2022-09-06T22:29:58.936Z,25.77
2022-09-06T22:32:25.706Z,25.76
2022-09-06T22:34:52.271Z,25.79
2022-09-06T22:37:18.816Z,25.82
2022-09-06T22:39:45.351Z,25.83
2022-09-06T22:42:11.858Z,25.84
2022-09-06T22:44:38.847Z,25.83
2022-09-06T22:47:05.412Z,25.83
2022-09-06T22:49:31.942Z,25.84
2022-09-06T22:51:58.499Z,25.83
2022-09-06T22:54:25.073Z,25.80
2022-09-06T22:56:51.616Z,25.80
2022-09-06T22:59:18.215Z,25.86
2022-09-06T23:01:44.802Z,25.85
2022-09-06T23:04:11.429Z,25.80
2022-09-06T23:06:37.959Z,25.82
2022-09-06T23:09:05.845Z,25.78
2022-09-06T23:11:32.718Z,25.78
2022-09-06T23:14:00.597Z,25.77
2022-09-06T23:16:28.147Z,25.71
2022-09-06T23:18:55.488Z,25.63
2022-09-06T23:21:24.301Z,25.59
2022-09-06T23:23:52.895Z,25.61
2022-09-06T23:26:25.562Z,25.63
2022-09-06T23:28:56.511Z,25.59
2022-09-06T23:31:25.499Z,25.49
2022-09-06T23:33:57.194Z,25.35
2022-09-06T23:36:24.592Z,25.24
2022-09-06T23:38:51.473Z,25.18
2022-09-06T23:41:18.487Z,25.21
2022-09-06T23:43:45.059Z,25.24
2022-09-06T23:46:13.291Z,25.16
2022-09-06T23:48:40.134Z,24.89
2022-09-06T23:51:07.044Z,24.50
2022-09-06T23:53:33.603Z,24.35
2022-09-06T23:56:00.504Z,24.24
2022-09-06T23:58:27.446Z,23.93
